Time;durP1;ratioP1;P1;durP2;ratioP2;P2;SDS_P1;SDS_P2;PMS_P1;PMS_P2;Temp;Humidity;BMP_temperature;BMP_pressure;BME280_temperature;BME280_humidity;BME280_pressure;Samples;Min_cycle;Max_cycle;Signal;HPM_P1;HPM_P2
2021/10/31 00:01:31;;;;;;;;;16.75;14.50;;;;;;;;5001125;28;9514;-81
2021/10/31 00:03:58;;;;;;;;;16.25;16.25;;;;;;;;5022153;28;9780;-83
2021/10/31 00:06:27;;;;;;;;;20.25;18.75;;;;;;;;5022531;28;9942;-80
2021/10/31 00:08:54;;;;;;;;;18.75;16.50;;;;;;;;5020380;28;9911;-82
2021/10/31 00:11:22;;;;;;;;;19.50;19.50;;;;;;;;5020734;28;9967;-81
2021/10/31 00:13:49;;;;;;;;;19.50;19.50;;;;;;;;5022986;28;9973;-81
2021/10/31 00:16:16;;;;;;;;;20.50;20.50;;;;;;;;5023503;28;9938;-80
2021/10/31 00:18:44;;;;;;;;;18.75;18.75;;;;;;;;5022459;28;10069;-82
2021/10/31 00:21:12;;;;;;;;;21.00;19.25;;;;;;;;5022241;28;10195;-86
2021/10/31 00:23:41;;;;;;;;;24.25;21.00;;;;;;;;5024050;28;10072;-81
2021/10/31 00:26:09;;;;;;;;;19.50;19.25;;;;;;;;5021411;28;10247;-84
2021/10/31 00:28:36;;;;;;;;;22.00;20.50;;;;;;;;5022398;28;10122;-80
2021/10/31 00:31:03;;;;;;;;;19.50;19.50;;;;;;;;5018641;28;10012;-82
2021/10/31 00:33:31;;;;;;;;;30.00;27.75;;;;;;;;5023925;28;10131;-82
2021/10/31 00:35:58;;;;;;;;;18.00;18.00;;;;;;;;5022483;28;10135;-79
2021/10/31 00:38:26;;;;;;;;;18.50;18.50;;;;;;;;5020883;28;10100;-81
2021/10/31 00:40:55;;;;;;;;;25.75;19.00;;;;;;;;5021954;28;9906;-79
2021/10/31 00:43:22;;;;;;;;;21.50;21.50;;;;;;;;5020150;28;9977;-78
2021/10/31 00:45:49;;;;;;;;;24.00;19.25;;;;;;;;5021930;28;10155;-80
2021/10/31 00:48:17;;;;;;;;;19.50;19.50;;;;;;;;5020524;28;10882;-80
2021/10/31 00:50:45;;;;;;;;;21.00;21.00;;;;;;;;5023176;28;9980;-79
2021/10/31 00:53:12;;;;;;;;;24.50;21.25;;;;;;;;5022916;28;10018;-83
2021/10/31 00:55:41;;;;;;;;;18.00;18.00;;;;;;;;5021856;28;10106;-81
2021/10/31 00:58:12;;;;;;;;;18.25;16.50;;;;;;;;5024365;28;9857;-84
2021/10/31 01:00:40;;;;;;;;;23.75;21.25;;;;;;;;5018585;28;9849;-80
2021/10/31 01:03:08;;;;;;;;;19.00;19.00;;;;;;;;5021513;28;9905;-80
2021/10/31 01:05:41;;;;;;;;;20.00;20.00;;;;;;;;5020985;28;10099;-78
2021/10/31 01:08:21;;;;;;;;;24.75;21.50;;;;;;;;5021273;28;9977;-80
2021/10/31 01:11:07;;;;;;;;;18.75;18.75;;;;;;;;5019077;28;10070;-83
2021/10/31 01:13:52;;;;;;;;;20.25;20.25;;;;;;;;5014193;28;10125;-80
2021/10/31 01:16:30;;;;;;;;;15.25;15.25;;;;;;;;5020275;28;10205;-81
2021/10/31 01:19:30;;;;;;;;;22.75;19.50;;;;;;;;5025072;28;10016;-82
2021/10/31 01:22:05;;;;;;;;;19.75;19.75;;;;;;;;4989046;28;9972;-80
2021/10/31 01:24:47;;;;;;;;;21.75;20.00;;;;;;;;5026930;28;10124;-80
2021/10/31 01:27:27;;;;;;;;;21.25;21.25;;;;;;;;5025289;28;10113;-79
2021/10/31 01:30:04;;;;;;;;;21.50;20.50;;;;;;;;5022856;28;10228;-80
2021/10/31 01:32:41;;;;;;;;;19.75;19.50;;;;;;;;5023921;28;10206;-78
2021/10/31 01:35:14;;;;;;;;;21.50;19.00;;;;;;;;5023626;28;10136;-80
2021/10/31 01:37:54;;;;;;;;;18.00;18.00;;;;;;;;5026288;28;10112;-80
2021/10/31 01:40:28;;;;;;;;;23.75;21.25;;;;;;;;5024256;28;9955;-80
2021/10/31 01:43:05;;;;;;;;;22.25;14.25;;;;;;;;5026578;28;10135;-83
2021/10/31 01:45:41;;;;;;;;;15.50;15.50;;;;;;;;5025744;28;10154;-81
2021/10/31 01:48:14;;;;;;;;;15.50;15.50;;;;;;;;5024304;28;9923;-83
2021/10/31 01:50:43;;;;;;;;;15.50;15.50;;;;;;;;5024604;28;9898;-81
2021/10/31 01:53:13;;;;;;;;;20.25;17.75;;;;;;;;5017740;28;10025;-82
2021/10/31 01:55:44;;;;;;;;;20.00;18.25;;;;;;;;5026523;28;9955;-85
2021/10/31 01:58:13;;;;;;;;;14.50;14.00;;;;;;;;5024994;28;9879;-80
2021/10/31 02:00:45;;;;;;;;;19.75;17.75;;;;;;;;5023713;28;9957;-84
2021/10/31 02:03:14;;;;;;;;;15.75;14.00;;;;;;;;5023012;28;10080;-81
2021/10/31 02:05:42;;;;;;;;;17.75;14.00;;;;;;;;5023201;28;9784;-80
2021/10/31 02:08:11;;;;;;;;;13.50;13.50;;;;;;;;5025390;28;10857;-84
2021/10/31 02:10:40;;;;;;;;;17.25;17.25;;;;;;;;5023888;28;10074;-83
2021/10/31 02:13:07;;;;;;;;;16.25;15.50;;;;;;;;5025098;28;10647;-82
2021/10/31 02:15:34;;;;;;;;;12.25;12.00;;;;;;;;5024625;28;10814;-81
2021/10/31 02:18:04;;;;;;;;;12.25;12.25;;;;;;;;5025506;28;9712;-80
2021/10/31 02:20:32;;;;;;;;;18.00;15.25;;;;;;;;5025810;28;9691;-82
2021/10/31 02:23:02;;;;;;;;;14.50;13.50;;;;;;;;5018717;28;9837;-84
2021/10/31 02:25:30;;;;;;;;;12.75;12.75;;;;;;;;5024738;28;9836;-78
2021/10/31 02:27:58;;;;;;;;;14.00;14.00;;;;;;;;5022962;28;9738;-80
2021/10/31 02:30:25;;;;;;;;;18.25;14.25;;;;;;;;5023607;28;9648;-82
2021/10/31 02:32:53;;;;;;;;;14.50;13.00;;;;;;;;5022438;28;9658;-82
2021/10/31 02:35:21;;;;;;;;;19.00;16.50;;;;;;;;5024092;28;9734;-85
2021/10/31 02:37:49;;;;;;;;;14.00;14.00;;;;;;;;5023865;28;9764;-85
2021/10/31 02:40:19;;;;;;;;;14.50;14.50;;;;;;;;5023260;28;9758;-82
2021/10/31 02:42:47;;;;;;;;;14.50;14.00;;;;;;;;5020243;28;9637;-80
2021/10/31 02:45:15;;;;;;;;;17.00;14.50;;;;;;;;5020964;28;9626;-82
2021/10/31 02:47:46;;;;;;;;;14.00;12.75;;;;;;;;5023571;28;9730;-80
2021/10/31 02:50:18;;;;;;;;;12.75;12.75;;;;;;;;5022865;28;9577;-84
2021/10/31 02:53:03;;;;;;;;;14.75;13.25;;;;;;;;5024001;28;9646;-80
2021/10/31 02:55:38;;;;;;;;;12.75;11.50;;;;;;;;5024404;28;9571;-79
2021/10/31 02:58:08;;;;;;;;;11.50;11.50;;;;;;;;5024113;28;9574;-87
2021/10/31 03:00:38;;;;;;;;;9.00;9.00;;;;;;;;5022592;28;9520;-80
2021/10/31 03:03:06;;;;;;;;;12.75;12.75;;;;;;;;5021742;28;9498;-78
2021/10/31 03:05:34;;;;;;;;;13.50;11.00;;;;;;;;5023724;28;9607;-81
2021/10/31 03:08:01;;;;;;;;;12.50;12.50;;;;;;;;5023993;28;9728;-78
2021/10/31 03:10:29;;;;;;;;;15.00;15.00;;;;;;;;5023579;28;9579;-81
2021/10/31 03:12:58;;;;;;;;;13.75;13.75;;;;;;;;5024138;28;9837;-79
2021/10/31 03:15:26;;;;;;;;;15.75;15.00;;;;;;;;5021673;28;9858;-80
2021/10/31 03:17:53;;;;;;;;;13.00;13.00;;;;;;;;5023873;28;9880;-79
2021/10/31 03:20:20;;;;;;;;;15.75;13.00;;;;;;;;5021993;28;9828;-78
2021/10/31 03:22:48;;;;;;;;;14.50;14.50;;;;;;;;5022573;28;9923;-81
2021/10/31 03:25:15;;;;;;;;;14.00;14.00;;;;;;;;5024071;28;9913;-82
2021/10/31 03:27:42;;;;;;;;;16.25;16.25;;;;;;;;5023033;28;9910;-81
2021/10/31 03:30:12;;;;;;;;;15.00;13.50;;;;;;;;5018568;28;10162;-80
2021/10/31 03:32:39;;;;;;;;;10.25;9.75;;;;;;;;5022492;28;10030;-78
2021/10/31 03:35:07;;;;;;;;;14.00;13.25;;;;;;;;5023728;28;9940;-79
2021/10/31 03:37:34;;;;;;;;;13.25;13.25;;;;;;;;5022548;28;9986;-79
2021/10/31 03:40:02;;;;;;;;;12.50;12.50;;;;;;;;5023687;28;9838;-79
2021/10/31 03:42:29;;;;;;;;;11.50;11.50;;;;;;;;5023488;28;9936;-79
2021/10/31 03:44:58;;;;;;;;;12.50;12.50;;;;;;;;5022830;28;9994;-80
2021/10/31 03:47:28;;;;;;;;;14.75;14.75;;;;;;;;5023241;28;10192;-81
2021/10/31 03:49:56;;;;;;;;;14.75;14.00;;;;;;;;5021736;28;10078;-79
2021/10/31 03:52:23;;;;;;;;;12.50;12.50;;;;;;;;5022615;28;11014;-78
2021/10/31 03:54:50;;;;;;;;;13.75;13.75;;;;;;;;5022975;28;10296;-79
2021/10/31 03:57:18;;;;;;;;;11.00;10.50;;;;;;;;5023396;28;11149;-79
2021/10/31 03:59:45;;;;;;;;;13.75;13.00;;;;;;;;5022290;28;10353;-83
2021/10/31 04:02:12;;;;;;;;;18.50;12.50;;;;;;;;5022375;28;10201;-83
2021/10/31 04:04:41;;;;;;;;;11.75;11.75;;;;;;;;5024125;28;10364;-79
2021/10/31 04:07:08;;;;;;;;;12.00;12.00;;;;;;;;5017644;28;10356;-78
2021/10/31 04:09:36;;;;;;;;;13.00;13.00;;;;;;;;5023809;28;10390;-84
2021/10/31 04:12:04;;;;;;;;;11.50;11.50;;;;;;;;5022896;28;10465;-78
2021/10/31 04:14:31;;;;;;;;;14.50;12.75;;;;;;;;5024642;28;10200;-79
2021/10/31 04:16:58;;;;;;;;;13.75;13.00;;;;;;;;5023263;28;10232;-79
2021/10/31 04:19:26;;;;;;;;;17.25;16.00;;;;;;;;5023100;28;10197;-84
2021/10/31 04:21:54;;;;;;;;;16.00;13.50;;;;;;;;5024385;28;10414;-79
2021/10/31 04:24:22;;;;;;;;;15.50;15.50;;;;;;;;5016523;28;10928;-84
2021/10/31 04:26:50;;;;;;;;;15.25;13.25;;;;;;;;5024050;28;10583;-80
2021/10/31 04:29:17;;;;;;;;;15.75;15.75;;;;;;;;5021987;28;10532;-80
2021/10/31 04:31:44;;;;;;;;;15.25;14.75;;;;;;;;5014267;28;10427;-81
2021/10/31 04:34:12;;;;;;;;;18.00;15.25;;;;;;;;5022570;28;10429;-79
2021/10/31 04:36:39;;;;;;;;;21.50;21.50;;;;;;;;5023203;28;10488;-79
2021/10/31 04:39:08;;;;;;;;;21.50;17.75;;;;;;;;5022114;28;10595;-83
2021/10/31 04:41:35;;;;;;;;;19.00;18.00;;;;;;;;5022679;28;10583;-80
2021/10/31 04:44:03;;;;;;;;;23.50;22.75;;;;;;;;5024084;28;10583;-83
2021/10/31 04:46:30;;;;;;;;;21.50;19.50;;;;;;;;5020148;28;10535;-81
2021/10/31 04:48:58;;;;;;;;;19.75;17.50;;;;;;;;5023522;28;10368;-82
2021/10/31 04:51:25;;;;;;;;;13.25;13.25;;;;;;;;5024852;28;10668;-82
2021/10/31 04:53:52;;;;;;;;;15.00;14.75;;;;;;;;5025670;28;10577;-82
2021/10/31 04:56:23;;;;;;;;;19.50;18.50;;;;;;;;5027185;28;10348;-83
2021/10/31 04:58:50;;;;;;;;;17.25;13.00;;;;;;;;5026993;28;10473;-79
2021/10/31 05:01:17;;;;;;;;;16.00;14.75;;;;;;;;5026180;28;10382;-79
2021/10/31 05:03:45;;;;;;;;;16.00;14.50;;;;;;;;5026046;28;10391;-81
2021/10/31 05:06:12;;;;;;;;;14.50;14.50;;;;;;;;5026496;28;10428;-83
2021/10/31 05:08:40;;;;;;;;;16.00;15.00;;;;;;;;5025598;28;10904;-84
2021/10/31 05:11:07;;;;;;;;;13.50;13.50;;;;;;;;5026848;28;10204;-80
2021/10/31 05:13:36;;;;;;;;;14.00;12.50;;;;;;;;5025656;28;10235;-78
2021/10/31 05:16:04;;;;;;;;;8.50;8.50;;;;;;;;5025295;28;10134;-82
2021/10/31 05:18:31;;;;;;;;;16.25;12.50;;;;;;;;5027210;28;10054;-81
2021/10/31 05:21:00;;;;;;;;;13.00;11.00;;;;;;;;5023823;28;10213;-81
2021/10/31 05:23:27;;;;;;;;;17.50;12.50;;;;;;;;5023853;28;9967;-81
2021/10/31 05:25:55;;;;;;;;;9.50;9.50;;;;;;;;5025927;28;10080;-79
2021/10/31 05:28:24;;;;;;;;;15.75;15.75;;;;;;;;5025257;28;9976;-78
2021/10/31 05:30:53;;;;;;;;;6.00;6.00;;;;;;;;5024104;28;9987;-79
2021/10/31 05:33:22;;;;;;;;;13.50;13.50;;;;;;;;5023984;28;10587;-81
2021/10/31 05:35:51;;;;;;;;;16.25;13.50;;;;;;;;5025341;28;10149;-83
2021/10/31 05:38:19;;;;;;;;;11.75;11.75;;;;;;;;5024904;28;10089;-84
2021/10/31 05:40:47;;;;;;;;;10.00;8.75;;;;;;;;5026179;28;10118;-81
2021/10/31 05:43:15;;;;;;;;;7.75;7.75;;;;;;;;5024975;28;10102;-82
2021/10/31 05:45:42;;;;;;;;;8.00;8.00;;;;;;;;5025718;28;9976;-81
2021/10/31 05:48:12;;;;;;;;;10.50;10.50;;;;;;;;5024894;28;9802;-80
2021/10/31 05:50:40;;;;;;;;;14.25;14.25;;;;;;;;5024952;28;10044;-82
2021/10/31 05:53:07;;;;;;;;;6.00;6.00;;;;;;;;5025712;28;10700;-83
2021/10/31 05:55:35;;;;;;;;;10.25;10.25;;;;;;;;5023126;28;10011;-84
2021/10/31 05:58:03;;;;;;;;;13.50;13.50;;;;;;;;5025287;28;9957;-83
2021/10/31 06:00:30;;;;;;;;;13.00;11.00;;;;;;;;5016738;28;10011;-82
2021/10/31 06:02:57;;;;;;;;;12.00;9.50;;;;;;;;5023103;28;10634;-81
2021/10/31 06:05:27;;;;;;;;;12.00;12.00;;;;;;;;5025287;28;9887;-80
2021/10/31 06:07:54;;;;;;;;;11.75;10.00;;;;;;;;5024083;28;9948;-79
2021/10/31 06:10:21;;;;;;;;;12.50;10.75;;;;;;;;5024436;28;10001;-79
2021/10/31 06:12:49;;;;;;;;;12.75;12.75;;;;;;;;5040003;28;9730;-79
2021/10/31 06:15:18;;;;;;;;;10.50;8.25;;;;;;;;5022927;28;9800;-79
2021/10/31 06:17:46;;;;;;;;;13.00;12.00;;;;;;;;5022765;28;9631;-81
2021/10/31 06:20:15;;;;;;;;;12.00;12.00;;;;;;;;5024894;28;9561;-83
2021/10/31 06:22:44;;;;;;;;;9.75;9.75;;;;;;;;5023587;28;9633;-80
2021/10/31 06:25:12;;;;;;;;;12.00;12.00;;;;;;;;5024405;28;9645;-80
2021/10/31 06:27:40;;;;;;;;;12.25;9.75;;;;;;;;5021968;28;10433;-78
2021/10/31 06:30:09;;;;;;;;;11.75;9.25;;;;;;;;5023938;28;9941;-80
2021/10/31 06:32:36;;;;;;;;;15.00;15.00;;;;;;;;5018929;28;9714;-82
2021/10/31 06:35:05;;;;;;;;;12.00;12.00;;;;;;;;5030022;28;9875;-75
2021/10/31 06:37:32;;;;;;;;;13.25;12.50;;;;;;;;5024633;28;9711;-80
2021/10/31 06:40:00;;;;;;;;;8.25;8.25;;;;;;;;5024359;28;10469;-83
2021/10/31 06:42:29;;;;;;;;;12.00;8.00;;;;;;;;5023442;28;10331;-80
2021/10/31 06:44:56;;;;;;;;;12.00;12.00;;;;;;;;5024227;28;9480;-80
2021/10/31 06:47:24;;;;;;;;;9.67;9.67;;;;;;;;5023795;28;10332;-80
2021/10/31 06:49:51;;;;;;;;;7.67;7.67;;;;;;;;5023303;28;9411;-81
2021/10/31 06:52:19;;;;;;;;;10.67;8.00;;;;;;;;5022454;28;9548;-81
2021/10/31 06:54:47;;;;;;;;;6.33;6.33;;;;;;;;5022368;28;9432;-79
2021/10/31 06:57:16;;;;;;;;;8.00;8.00;;;;;;;;5021438;28;9498;-79
2021/10/31 06:59:43;;;;;;;;;6.67;6.67;;;;;;;;5024749;28;9368;-81
2021/10/31 07:02:11;;;;;;;;;7.33;7.33;;;;;;;;5021500;28;9337;-83
2021/10/31 07:04:38;;;;;;;;;4.00;4.00;;;;;;;;5024110;28;9400;-85
2021/10/31 07:07:05;;;;;;;;;6.00;6.00;;;;;;;;5023443;28;9351;-85
2021/10/31 07:09:33;;;;;;;;;5.67;5.67;;;;;;;;5023995;28;9209;-88
2021/10/31 07:12:00;;;;;;;;;5.00;5.00;;;;;;;;5026229;28;9362;-86
2021/10/31 07:14:29;;;;;;;;;5.00;5.00;;;;;;;;5024312;28;9207;-86
2021/10/31 07:16:57;;;;;;;;;6.00;3.00;;;;;;;;5024816;28;9382;-82
2021/10/31 07:19:24;;;;;;;;;6.00;6.00;;;;;;;;5022668;28;9294;-87
2021/10/31 07:21:53;;;;;;;;;4.00;4.00;;;;;;;;5022968;28;9352;-86
2021/10/31 07:24:36;;;;;;;;;3.67;3.67;;;;;;;;5023575;28;9186;-87
2021/10/31 07:27:04;;;;;;;;;4.67;4.67;;;;;;;;5018988;28;9363;-85
2021/10/31 07:29:33;;;;;;;;;3.33;3.33;;;;;;;;5024426;28;9367;-85
2021/10/31 07:32:40;;;;;;;;;7.67;7.67;;;;;;;;5006588;28;9108;-86
2021/10/31 07:35:11;;;;;;;;;8.00;5.33;;;;;;;;5023310;28;9959;-89
2021/10/31 07:37:50;;;;;;;;;6.00;4.00;;;;;;;;5021696;28;9094;-89
2021/10/31 07:40:46;;;;;;;;;6.00;4.67;;;;;;;;4946654;28;9265;-87
2021/10/31 07:43:13;;;;;;;;;4.67;3.00;;;;;;;;5021655;28;9013;-87
2021/10/31 07:49:18;;;;;;;;;5.33;4.67;;;;;;;;4981707;28;9089;-88
2021/10/31 07:51:56;;;;;;;;;4.75;3.00;;;;;;;;4990915;28;9261;-88
2021/10/31 07:58:08;;;;;;;;;1.00;1.00;;;;;;;;5022449;28;8801;-87
2021/10/31 08:00:43;;;;;;;;;2.33;2.33;;;;;;;;5020858;28;8796;-87
2021/10/31 08:03:10;;;;;;;;;3.67;3.67;;;;;;;;5023425;28;8959;-86
2021/10/31 08:05:39;;;;;;;;;4.33;4.00;;;;;;;;5021969;28;9050;-85
2021/10/31 08:08:07;;;;;;;;;3.75;2.75;;;;;;;;5022755;28;9767;-83
2021/10/31 08:10:34;;;;;;;;;5.67;5.67;;;;;;;;5023379;28;8904;-81
2021/10/31 08:13:01;;;;;;;;;7.25;7.25;;;;;;;;5022426;28;8963;-86
2021/10/31 08:15:29;;;;;;;;;2.00;2.00;;;;;;;;5024210;28;8870;-86
2021/10/31 08:17:56;;;;;;;;;16.00;16.00;;;;;;;;5020387;28;8880;-82
2021/10/31 08:20:24;;;;;;;;;3.25;3.25;;;;;;;;5038610;28;9230;-79
2021/10/31 08:22:53;;;;;;;;;43.50;39.00;;;;;;;;5021284;28;8971;-82
2021/10/31 08:25:20;;;;;;;;;3.75;3.75;;;;;;;;5022484;28;10119;-76
2021/10/31 08:27:48;;;;;;;;;2.00;2.00;;;;;;;;5023019;28;8962;-76
2021/10/31 08:30:15;;;;;;;;;2.00;2.00;;;;;;;;5022570;28;8884;-80
2021/10/31 08:32:47;;;;;;;;;4.00;3.00;;;;;;;;5022663;28;8855;-80
2021/10/31 08:35:15;;;;;;;;;2.75;2.75;;;;;;;;5020125;28;8890;-87
2021/10/31 08:37:43;;;;;;;;;2.75;2.75;;;;;;;;5022477;28;8880;-86
2021/10/31 08:40:13;;;;;;;;;5.25;4.00;;;;;;;;5022703;28;8865;-86
2021/10/31 08:42:41;;;;;;;;;6.75;2.75;;;;;;;;5021475;28;8888;-87
2021/10/31 08:45:10;;;;;;;;;2.00;2.00;;;;;;;;5022535;28;8882;-84
2021/10/31 08:47:38;;;;;;;;;6.00;3.75;;;;;;;;5017965;28;8899;-85
2021/10/31 08:50:06;;;;;;;;;2.75;2.75;;;;;;;;5016867;28;9022;-83
2021/10/31 08:52:34;;;;;;;;;3.00;3.00;;;;;;;;5017795;28;8994;-83
2021/10/31 08:55:01;;;;;;;;;3.25;1.50;;;;;;;;5020382;28;8894;-82
2021/10/31 08:57:30;;;;;;;;;7.67;7.67;;;;;;;;5017288;28;8892;-82
2021/10/31 08:59:58;;;;;;;;;5.00;3.00;;;;;;;;5036077;28;8972;-85
2021/10/31 09:02:28;;;;;;;;;10.75;10.75;;;;;;;;5021029;28;8825;-85
2021/10/31 09:04:56;;;;;;;;;2.25;2.25;;;;;;;;5021437;28;8927;-85
2021/10/31 09:07:23;;;;;;;;;3.25;3.25;;;;;;;;5021738;28;8945;-83
2021/10/31 09:09:51;;;;;;;;;9.00;9.00;;;;;;;;5021869;28;8868;-85
2021/10/31 09:12:18;;;;;;;;;2.00;2.00;;;;;;;;5021796;28;9011;-88
2021/10/31 09:14:47;;;;;;;;;3.00;3.00;;;;;;;;5021952;28;8994;-86
2021/10/31 09:17:14;;;;;;;;;2.50;2.50;;;;;;;;5019935;28;8872;-84
2021/10/31 09:19:41;;;;;;;;;5.75;3.00;;;;;;;;5020183;28;8864;-83
2021/10/31 09:22:09;;;;;;;;;2.00;2.00;;;;;;;;5022241;28;8918;-86
2021/10/31 09:24:37;;;;;;;;;5.75;5.75;;;;;;;;5019455;28;8820;-86
2021/10/31 09:27:05;;;;;;;;;2.00;2.00;;;;;;;;5022265;28;9598;-83
2021/10/31 09:29:32;;;;;;;;;5.00;3.25;;;;;;;;5022266;28;9776;-88
2021/10/31 09:32:01;;;;;;;;;1.50;1.50;;;;;;;;5038305;28;8812;-84
2021/10/31 09:34:29;;;;;;;;;2.25;2.25;;;;;;;;5023871;28;8900;-86
2021/10/31 09:36:57;;;;;;;;;3.25;1.75;;;;;;;;5022529;28;8868;-83
2021/10/31 09:39:24;;;;;;;;;2.00;2.00;;;;;;;;5025197;28;9638;-87
2021/10/31 09:41:52;;;;;;;;;1.00;1.00;;;;;;;;5042769;28;8918;-84
2021/10/31 09:44:21;;;;;;;;;2.00;2.00;;;;;;;;5019200;28;8894;-84
2021/10/31 09:46:49;;;;;;;;;2.00;2.00;;;;;;;;5022668;28;9042;-82
2021/10/31 09:49:18;;;;;;;;;1.00;1.00;;;;;;;;5025859;28;8900;-83
2021/10/31 09:51:49;;;;;;;;;1.50;1.50;;;;;;;;5027038;28;8864;-83
2021/10/31 09:54:16;;;;;;;;;2.00;2.00;;;;;;;;5022335;28;8856;-83
2021/10/31 09:56:44;;;;;;;;;2.50;1.00;;;;;;;;5025307;28;8922;-76
2021/10/31 09:59:14;;;;;;;;;1.50;1.25;;;;;;;;5022230;28;8879;-85
2021/10/31 10:01:56;;;;;;;;;1.00;1.00;;;;;;;;5026548;28;8974;-82
2021/10/31 10:04:27;;;;;;;;;1.25;1.00;;;;;;;;5022107;28;8852;-83
2021/10/31 10:06:56;;;;;;;;;1.50;1.50;;;;;;;;5023585;28;8984;-84
2021/10/31 10:09:24;;;;;;;;;2.00;2.00;;;;;;;;5026441;28;9646;-85
2021/10/31 10:11:52;;;;;;;;;0.25;0.25;;;;;;;;5026211;28;8886;-84
2021/10/31 10:14:23;;;;;;;;;1.00;1.00;;;;;;;;5039133;28;8914;-85
2021/10/31 10:16:55;;;;;;;;;1.00;1.00;;;;;;;;5023661;28;8843;-83
2021/10/31 10:19:24;;;;;;;;;1.25;1.25;;;;;;;;5024225;28;8879;-82
2021/10/31 10:22:06;;;;;;;;;1.00;1.00;;;;;;;;5024369;28;8907;-82
2021/10/31 10:24:35;;;;;;;;;1.75;1.75;;;;;;;;5037670;28;8926;-80
2021/10/31 10:27:05;;;;;;;;;2.00;2.00;;;;;;;;5039725;28;8888;-80
2021/10/31 10:29:36;;;;;;;;;2.00;2.00;;;;;;;;5019333;28;9705;-79
2021/10/31 10:32:04;;;;;;;;;0.50;0.50;;;;;;;;5022637;28;8820;-79
2021/10/31 10:34:35;;;;;;;;;2.75;2.00;;;;;;;;5022989;28;8907;-83
2021/10/31 10:37:08;;;;;;;;;1.75;1.75;;;;;;;;5022143;28;9614;-79
2021/10/31 10:39:36;;;;;;;;;1.75;0.75;;;;;;;;5022370;28;9472;-86
2021/10/31 10:42:04;;;;;;;;;1.00;1.00;;;;;;;;5024225;28;8882;-85
2021/10/31 10:44:33;;;;;;;;;3.00;3.00;;;;;;;;5022019;28;9022;-86
2021/10/31 10:47:03;;;;;;;;;3.75;2.50;;;;;;;;5024641;28;8881;-87
2021/10/31 10:49:33;;;;;;;;;1.00;1.00;;;;;;;;5019356;28;8864;-82
2021/10/31 10:52:24;;;;;;;;;2.00;2.00;;;;;;;;5023875;28;8876;-82
2021/10/31 10:54:57;;;;;;;;;1.00;1.00;;;;;;;;5019476;28;8918;-82
2021/10/31 10:57:26;;;;;;;;;4.00;1.00;;;;;;;;5022512;28;8903;-83
2021/10/31 10:59:56;;;;;;;;;1.00;1.00;;;;;;;;5022612;28;8875;-81
2021/10/31 11:02:24;;;;;;;;;1.00;1.00;;;;;;;;5022205;28;8983;-79
2021/10/31 11:04:57;;;;;;;;;1.00;1.00;;;;;;;;5023336;28;8882;-86
2021/10/31 11:07:37;;;;;;;;;1.00;1.00;;;;;;;;5022731;28;8900;-86
2021/10/31 11:10:19;;;;;;;;;2.00;2.00;;;;;;;;5020006;28;8880;-80
2021/10/31 11:12:47;;;;;;;;;1.00;1.00;;;;;;;;5018689;28;8931;-81
2021/10/31 11:15:17;;;;;;;;;3.25;2.00;;;;;;;;5020936;28;8887;-80
2021/10/31 11:17:46;;;;;;;;;2.00;2.00;;;;;;;;5019351;28;8843;-79
2021/10/31 11:20:15;;;;;;;;;2.75;2.00;;;;;;;;5019638;28;8883;-82
2021/10/31 11:22:47;;;;;;;;;2.00;2.00;;;;;;;;5018571;28;8860;-78
2021/10/31 11:25:16;;;;;;;;;3.00;3.00;;;;;;;;5020875;28;8882;-80
2021/10/31 11:27:45;;;;;;;;;2.00;2.00;;;;;;;;5034282;28;8864;-79
2021/10/31 11:30:13;;;;;;;;;1.00;1.00;;;;;;;;5014898;28;8874;-79
2021/10/31 11:32:42;;;;;;;;;1.00;1.00;;;;;;;;5018963;28;8883;-79
2021/10/31 11:35:12;;;;;;;;;2.00;2.00;;;;;;;;5024624;28;8886;-79
2021/10/31 11:37:47;;;;;;;;;2.00;2.00;;;;;;;;5022208;28;8990;-80
2021/10/31 11:40:27;;;;;;;;;2.00;2.00;;;;;;;;5026628;28;8883;-79
2021/10/31 11:42:54;;;;;;;;;1.00;1.00;;;;;;;;5016014;28;8890;-79
2021/10/31 11:45:25;;;;;;;;;0.75;0.75;;;;;;;;5022455;28;8901;-79
2021/10/31 11:48:11;;;;;;;;;4.25;4.00;;;;;;;;5023823;28;8945;-79
2021/10/31 11:50:40;;;;;;;;;3.00;3.00;;;;;;;;5017404;28;9646;-79
2021/10/31 11:53:16;;;;;;;;;1.25;1.25;;;;;;;;5023579;28;8868;-79
2021/10/31 11:59:02;;;;;;;;;2.25;2.25;;;;;;;;5024302;28;9046;-79
2021/10/31 12:01:43;;;;;;;;;6.50;3.75;;;;;;;;5023645;28;8830;-79
2021/10/31 12:04:12;;;;;;;;;2.00;2.00;;;;;;;;5023555;28;8965;-79
2021/10/31 12:06:50;;;;;;;;;8.50;6.00;;;;;;;;5024100;28;8909;-80
2021/10/31 12:09:24;;;;;;;;;6.25;4.75;;;;;;;;5023368;28;8985;-79
2021/10/31 12:12:16;;;;;;;;;2.50;2.50;;;;;;;;5023458;28;8864;-78
2021/10/31 12:14:48;;;;;;;;;3.00;3.00;;;;;;;;5016980;28;8882;-78
2021/10/31 12:17:16;;;;;;;;;2.00;2.00;;;;;;;;5021290;28;9579;-78
2021/10/31 12:19:45;;;;;;;;;3.75;3.00;;;;;;;;5024091;28;8914;-78
2021/10/31 12:22:15;;;;;;;;;3.00;3.00;;;;;;;;5021931;28;8987;-78
2021/10/31 12:24:45;;;;;;;;;2.75;2.75;;;;;;;;5023203;28;8901;-78
2021/10/31 12:27:17;;;;;;;;;2.50;2.50;;;;;;;;5024023;28;8913;-77
2021/10/31 12:30:03;;;;;;;;;3.50;2.00;;;;;;;;5022368;28;8895;-78
2021/10/31 12:32:41;;;;;;;;;3.00;3.00;;;;;;;;5022650;28;8896;-78
2021/10/31 12:35:29;;;;;;;;;2.00;2.00;;;;;;;;5016172;28;8874;-77
2021/10/31 12:38:32;;;;;;;;;2.25;2.25;;;;;;;;5019520;28;8894;-78
2021/10/31 12:41:26;;;;;;;;;3.00;3.00;;;;;;;;5023435;28;8892;-78
2021/10/31 12:43:57;;;;;;;;;1.50;1.50;;;;;;;;5023052;28;9111;-78
2021/10/31 12:46:28;;;;;;;;;1.50;1.50;;;;;;;;5023425;28;9012;-79
2021/10/31 12:48:57;;;;;;;;;1.00;1.00;;;;;;;;5022841;28;9023;-79
2021/10/31 12:51:53;;;;;;;;;1.25;1.25;;;;;;;;5022724;28;8905;-78
2021/10/31 12:54:23;;;;;;;;;6.00;2.75;;;;;;;;5023026;28;8985;-79
2021/10/31 12:56:52;;;;;;;;;2.00;2.00;;;;;;;;5021566;28;8894;-78
2021/10/31 12:59:19;;;;;;;;;2.00;2.00;;;;;;;;5022975;28;9664;-78
2021/10/31 13:01:48;;;;;;;;;2.00;2.00;;;;;;;;5004864;28;8823;-79
2021/10/31 13:04:15;;;;;;;;;3.00;3.00;;;;;;;;5022967;28;8899;-79
2021/10/31 13:06:56;;;;;;;;;2.25;2.25;;;;;;;;5023808;28;8886;-79
2021/10/31 13:09:24;;;;;;;;;2.25;2.25;;;;;;;;5020376;28;8923;-79
2021/10/31 13:11:53;;;;;;;;;3.75;2.00;;;;;;;;5019865;28;8879;-79
2021/10/31 13:14:29;;;;;;;;;2.00;2.00;;;;;;;;5026430;28;8895;-79
2021/10/31 13:16:58;;;;;;;;;2.00;2.00;;;;;;;;5026965;28;9652;-79
2021/10/31 13:19:26;;;;;;;;;2.75;2.75;;;;;;;;5025944;28;9014;-79
2021/10/31 13:21:59;;;;;;;;;2.00;2.00;;;;;;;;5026344;28;9003;-79
2021/10/31 13:24:27;;;;;;;;;1.25;1.25;;;;;;;;5026553;28;8903;-79
2021/10/31 13:26:56;;;;;;;;;3.00;3.00;;;;;;;;5023787;28;8867;-79
2021/10/31 13:29:37;;;;;;;;;2.25;2.25;;;;;;;;5026028;28;8888;-78
2021/10/31 13:32:17;;;;;;;;;2.50;1.00;;;;;;;;5015395;28;8827;-79
2021/10/31 13:34:46;;;;;;;;;2.00;2.00;;;;;;;;5023623;28;8876;-79
2021/10/31 13:37:15;;;;;;;;;2.00;2.00;;;;;;;;5027110;28;8907;-79
2021/10/31 13:39:43;;;;;;;;;3.00;1.50;;;;;;;;5025435;28;8945;-79
2021/10/31 13:42:15;;;;;;;;;2.25;2.00;;;;;;;;5026949;28;9007;-78
2021/10/31 13:44:46;;;;;;;;;1.00;1.00;;;;;;;;5023350;28;8868;-77
2021/10/31 13:47:30;;;;;;;;;0.75;0.75;;;;;;;;5026425;28;8911;-78
2021/10/31 13:50:02;;;;;;;;;1.50;1.50;;;;;;;;5026630;28;8872;-78
2021/10/31 13:52:29;;;;;;;;;3.75;2.75;;;;;;;;5025916;28;8887;-77
2021/10/31 13:54:59;;;;;;;;;2.00;2.00;;;;;;;;5026992;28;8880;-78
2021/10/31 13:57:29;;;;;;;;;2.00;2.00;;;;;;;;5025622;28;8900;-78
2021/10/31 13:59:57;;;;;;;;;1.50;1.50;;;;;;;;5026846;28;8909;-77
2021/10/31 14:02:26;;;;;;;;;2.00;2.00;;;;;;;;5025524;28;8808;-78
2021/10/31 14:05:07;;;;;;;;;2.00;2.00;;;;;;;;5025621;28;8922;-78
2021/10/31 14:07:36;;;;;;;;;2.50;1.25;;;;;;;;5024471;28;8886;-78
2021/10/31 14:10:06;;;;;;;;;2.00;2.00;;;;;;;;5019137;28;8879;-78
2021/10/31 14:12:35;;;;;;;;;3.50;2.00;;;;;;;;5013602;28;8981;-78
2021/10/31 14:15:06;;;;;;;;;2.00;2.00;;;;;;;;5025382;28;8868;-79
2021/10/31 14:17:35;;;;;;;;;2.50;2.00;;;;;;;;5026202;28;8957;-77
2021/10/31 14:20:03;;;;;;;;;2.00;2.00;;;;;;;;5026210;28;9081;-77
2021/10/31 14:22:45;;;;;;;;;2.00;2.00;;;;;;;;5024856;28;8975;-77
2021/10/31 14:25:16;;;;;;;;;2.00;2.00;;;;;;;;5025875;28;8961;-77
2021/10/31 14:27:47;;;;;;;;;2.75;2.00;;;;;;;;5025280;28;8944;-78
2021/10/31 14:30:22;;;;;;;;;2.00;2.00;;;;;;;;5025357;28;8902;-77
2021/10/31 14:33:02;;;;;;;;;2.00;2.00;;;;;;;;5025919;28;9030;-77
2021/10/31 14:35:44;;;;;;;;;3.00;3.00;;;;;;;;5024894;28;8860;-77
2021/10/31 14:38:26;;;;;;;;;2.75;2.75;;;;;;;;5025582;28;8998;-78
2021/10/31 14:41:07;;;;;;;;;2.75;1.00;;;;;;;;5024467;28;8906;-77
2021/10/31 14:43:39;;;;;;;;;1.75;1.75;;;;;;;;5025375;28;8894;-77
2021/10/31 14:46:09;;;;;;;;;1.75;1.75;;;;;;;;5025639;28;8978;-78
2021/10/31 14:48:39;;;;;;;;;1.00;1.00;;;;;;;;5024525;28;8923;-77
2021/10/31 14:51:22;;;;;;;;;4.00;2.75;;;;;;;;5025820;28;8914;-77
2021/10/31 14:54:03;;;;;;;;;1.75;1.75;;;;;;;;5024324;28;8970;-77
2021/10/31 14:56:33;;;;;;;;;3.00;3.00;;;;;;;;5025319;28;8868;-77
2021/10/31 14:59:05;;;;;;;;;3.25;3.25;;;;;;;;5025280;28;8898;-77
2021/10/31 15:01:33;;;;;;;;;2.00;2.00;;;;;;;;5024471;28;8935;-77
2021/10/31 15:04:00;;;;;;;;;2.75;2.75;;;;;;;;5025429;28;8868;-77
2021/10/31 15:06:28;;;;;;;;;2.00;2.00;;;;;;;;5024572;28;8879;-77
2021/10/31 15:08:56;;;;;;;;;2.00;2.00;;;;;;;;5025333;28;8919;-78
2021/10/31 15:11:24;;;;;;;;;2.00;2.00;;;;;;;;5023444;28;8864;-77